sensor_id;sensor_type;location;lat;lon;timestamp;P1;durP1;ratioP1;P2;durP2;ratioP2
51957;SDS011;41120;51.820;20.804;2023-03-01T00:04:35;52.95;;;23.88;;
51957;SDS011;41120;51.820;20.804;2023-03-01T00:09:37;52.78;;;24.08;;
51957;SDS011;41120;51.820;20.804;2023-03-01T00:12:03;53.03;;;25.27;;
51957;SDS011;41120;51.820;20.804;2023-03-01T00:14:29;50.90;;;24.60;;
51957;SDS011;41120;51.820;20.804;2023-03-01T00:19:26;54.70;;;24.52;;
51957;SDS011;41120;51.820;20.804;2023-03-01T00:24:23;57.38;;;27.13;;
51957;SDS011;41120;51.820;20.804;2023-03-01T00:26:52;56.60;;;26.23;;
51957;SDS011;41120;51.820;20.804;2023-03-01T00:29:21;61.50;;;26.83;;
51957;SDS011;41120;51.820;20.804;2023-03-01T00:31:50;60.25;;;28.00;;
51957;SDS011;41120;51.820;20.804;2023-03-01T00:34:21;66.18;;;27.80;;
51957;SDS011;41120;51.820;20.804;2023-03-01T00:36:49;60.05;;;27.38;;
51957;SDS011;41120;51.820;20.804;2023-03-01T00:39:24;60.38;;;27.75;;
51957;SDS011;41120;51.820;20.804;2023-03-01T00:41:51;54.28;;;25.65;;
51957;SDS011;41120;51.820;20.804;2023-03-01T00:44:28;53.70;;;25.58;;
51957;SDS011;41120;51.820;20.804;2023-03-01T00:46:59;52.88;;;23.38;;
51957;SDS011;41120;51.820;20.804;2023-03-01T00:51:56;57.22;;;26.45;;
51957;SDS011;41120;51.820;20.804;2023-03-01T00:54:32;56.17;;;26.15;;
51957;SDS011;41120;51.820;20.804;2023-03-01T00:56:58;55.63;;;26.58;;
51957;SDS011;41120;51.820;20.804;2023-03-01T00:59:25;53.72;;;24.92;;
51957;SDS011;41120;51.820;20.804;2023-03-01T01:01:52;55.30;;;25.33;;
51957;SDS011;41120;51.820;20.804;2023-03-01T01:04:18;56.60;;;25.67;;
51957;SDS011;41120;51.820;20.804;2023-03-01T01:06:45;60.50;;;25.90;;
51957;SDS011;41120;51.820;20.804;2023-03-01T01:09:20;59.03;;;26.52;;
51957;SDS011;41120;51.820;20.804;2023-03-01T01:11:47;53.17;;;25.77;;
51957;SDS011;41120;51.820;20.804;2023-03-01T01:14:16;59.97;;;28.13;;
51957;SDS011;41120;51.820;20.804;2023-03-01T01:16:42;62.38;;;29.38;;
51957;SDS011;41120;51.820;20.804;2023-03-01T01:19:10;60.28;;;27.75;;
51957;SDS011;41120;51.820;20.804;2023-03-01T01:21:37;61.20;;;28.55;;
51957;SDS011;41120;51.820;20.804;2023-03-01T01:24:03;63.70;;;28.65;;
51957;SDS011;41120;51.820;20.804;2023-03-01T01:26:32;69.90;;;30.33;;
51957;SDS011;41120;51.820;20.804;2023-03-01T01:29:02;65.57;;;29.80;;
51957;SDS011;41120;51.820;20.804;2023-03-01T01:31:29;65.18;;;28.85;;
51957;SDS011;41120;51.820;20.804;2023-03-01T01:33:59;66.63;;;28.67;;
51957;SDS011;41120;51.820;20.804;2023-03-01T01:36:27;63.28;;;28.88;;
51957;SDS011;41120;51.820;20.804;2023-03-01T01:38:53;59.70;;;27.88;;
51957;SDS011;41120;51.820;20.804;2023-03-01T01:41:22;66.67;;;28.20;;
51957;SDS011;41120;51.820;20.804;2023-03-01T01:48:56;56.65;;;25.80;;
51957;SDS011;41120;51.820;20.804;2023-03-01T01:53:58;55.95;;;23.95;;
51957;SDS011;41120;51.820;20.804;2023-03-01T01:56:26;59.53;;;25.73;;
51957;SDS011;41120;51.820;20.804;2023-03-01T01:58:55;65.32;;;27.65;;
51957;SDS011;41120;51.820;20.804;2023-03-01T02:01:21;67.93;;;27.58;;
51957;SDS011;41120;51.820;20.804;2023-03-01T02:03:48;72.00;;;30.42;;
51957;SDS011;41120;51.820;20.804;2023-03-01T02:09:11;60.17;;;26.67;;
51957;SDS011;41120;51.820;20.804;2023-03-01T02:11:39;59.92;;;25.83;;
51957;SDS011;41120;51.820;20.804;2023-03-01T02:14:06;61.80;;;27.80;;
51957;SDS011;41120;51.820;20.804;2023-03-01T02:16:34;63.78;;;26.92;;
51957;SDS011;41120;51.820;20.804;2023-03-01T02:19:02;60.78;;;25.60;;
51957;SDS011;41120;51.820;20.804;2023-03-01T02:23:58;56.67;;;25.33;;
51957;SDS011;41120;51.820;20.804;2023-03-01T02:26:33;59.78;;;25.40;;
51957;SDS011;41120;51.820;20.804;2023-03-01T02:29:02;60.83;;;25.83;;
51957;SDS011;41120;51.820;20.804;2023-03-01T02:31:29;56.97;;;24.93;;
51957;SDS011;41120;51.820;20.804;2023-03-01T02:34:28;58.30;;;26.30;;
51957;SDS011;41120;51.820;20.804;2023-03-01T02:37:12;58.78;;;26.15;;
51957;SDS011;41120;51.820;20.804;2023-03-01T02:39:42;61.75;;;27.13;;
51957;SDS011;41120;51.820;20.804;2023-03-01T02:42:10;63.05;;;26.55;;
51957;SDS011;41120;51.820;20.804;2023-03-01T02:44:41;62.03;;;25.20;;
51957;SDS011;41120;51.820;20.804;2023-03-01T02:47:06;58.03;;;24.15;;
51957;SDS011;41120;51.820;20.804;2023-03-01T02:49:36;55.95;;;25.10;;
51957;SDS011;41120;51.820;20.804;2023-03-01T02:57:01;50.72;;;24.27;;
51957;SDS011;41120;51.820;20.804;2023-03-01T02:59:33;52.90;;;24.48;;
51957;SDS011;41120;51.820;20.804;2023-03-01T03:02:05;50.25;;;23.42;;
51957;SDS011;41120;51.820;20.804;2023-03-01T03:04:31;49.72;;;22.67;;
51957;SDS011;41120;51.820;20.804;2023-03-01T03:06:57;60.23;;;24.80;;
51957;SDS011;41120;51.820;20.804;2023-03-01T03:09:26;57.90;;;23.67;;
51957;SDS011;41120;51.820;20.804;2023-03-01T03:14:29;58.22;;;24.20;;
51957;SDS011;41120;51.820;20.804;2023-03-01T03:17:13;53.22;;;24.17;;
51957;SDS011;41120;51.820;20.804;2023-03-01T03:19:42;52.83;;;23.88;;
51957;SDS011;41120;51.820;20.804;2023-03-01T03:22:12;49.20;;;22.52;;
51957;SDS011;41120;51.820;20.804;2023-03-01T03:24:39;48.92;;;23.70;;
51957;SDS011;41120;51.820;20.804;2023-03-01T03:27:06;48.63;;;23.05;;
51957;SDS011;41120;51.820;20.804;2023-03-01T03:29:35;46.53;;;22.05;;
51957;SDS011;41120;51.820;20.804;2023-03-01T03:32:03;47.47;;;20.95;;
51957;SDS011;41120;51.820;20.804;2023-03-01T03:34:31;48.88;;;21.55;;
51957;SDS011;41120;51.820;20.804;2023-03-01T03:37:01;47.42;;;20.38;;
51957;SDS011;41120;51.820;20.804;2023-03-01T03:39:28;47.97;;;21.33;;
51957;SDS011;41120;51.820;20.804;2023-03-01T03:41:57;52.15;;;22.42;;
51957;SDS011;41120;51.820;20.804;2023-03-01T03:46:54;47.60;;;21.25;;
51957;SDS011;41120;51.820;20.804;2023-03-01T03:49:20;45.05;;;20.58;;
51957;SDS011;41120;51.820;20.804;2023-03-01T03:51:49;46.63;;;19.90;;
51957;SDS011;41120;51.820;20.804;2023-03-01T03:54:20;42.50;;;20.67;;
51957;SDS011;41120;51.820;20.804;2023-03-01T03:59:38;43.92;;;19.45;;
51957;SDS011;41120;51.820;20.804;2023-03-01T04:02:05;58.75;;;25.10;;
51957;SDS011;41120;51.820;20.804;2023-03-01T04:04:34;65.30;;;27.08;;
51957;SDS011;41120;51.820;20.804;2023-03-01T04:07:06;69.17;;;29.90;;
51957;SDS011;41120;51.820;20.804;2023-03-01T04:09:34;60.33;;;24.95;;
51957;SDS011;41120;51.820;20.804;2023-03-01T04:12:01;57.53;;;26.60;;
51957;SDS011;41120;51.820;20.804;2023-03-01T04:14:36;56.25;;;27.20;;
51957;SDS011;41120;51.820;20.804;2023-03-01T04:17:13;66.93;;;30.58;;
51957;SDS011;41120;51.820;20.804;2023-03-01T04:22:14;61.63;;;25.73;;
51957;SDS011;41120;51.820;20.804;2023-03-01T04:24:45;67.30;;;28.75;;
51957;SDS011;41120;51.820;20.804;2023-03-01T04:27:13;70.60;;;30.35;;
51957;SDS011;41120;51.820;20.804;2023-03-01T04:32:14;58.20;;;27.50;;
51957;SDS011;41120;51.820;20.804;2023-03-01T04:34:48;56.78;;;25.35;;
51957;SDS011;41120;51.820;20.804;2023-03-01T04:37:26;52.63;;;23.52;;
51957;SDS011;41120;51.820;20.804;2023-03-01T04:39:52;46.97;;;22.25;;
51957;SDS011;41120;51.820;20.804;2023-03-01T04:42:20;50.70;;;22.73;;
51957;SDS011;41120;51.820;20.804;2023-03-01T04:44:50;49.92;;;22.25;;
51957;SDS011;41120;51.820;20.804;2023-03-01T04:47:21;55.72;;;23.25;;
51957;SDS011;41120;51.820;20.804;2023-03-01T04:49:49;52.85;;;23.30;;
51957;SDS011;41120;51.820;20.804;2023-03-01T04:52:16;55.03;;;24.73;;
51957;SDS011;41120;51.820;20.804;2023-03-01T04:54:43;52.10;;;23.67;;
51957;SDS011;41120;51.820;20.804;2023-03-01T04:57:14;57.22;;;23.15;;
51957;SDS011;41120;51.820;20.804;2023-03-01T04:59:41;57.25;;;23.55;;
51957;SDS011;41120;51.820;20.804;2023-03-01T05:02:12;50.90;;;22.65;;
51957;SDS011;41120;51.820;20.804;2023-03-01T05:07:08;51.88;;;22.90;;
51957;SDS011;41120;51.820;20.804;2023-03-01T05:14:46;55.28;;;24.85;;
51957;SDS011;41120;51.820;20.804;2023-03-01T05:17:13;56.40;;;24.58;;
51957;SDS011;41120;51.820;20.804;2023-03-01T05:19:40;54.58;;;24.73;;
51957;SDS011;41120;51.820;20.804;2023-03-01T05:22:11;58.88;;;24.83;;
51957;SDS011;41120;51.820;20.804;2023-03-01T05:27:12;64.78;;;25.73;;
51957;SDS011;41120;51.820;20.804;2023-03-01T05:29:40;54.45;;;23.85;;
51957;SDS011;41120;51.820;20.804;2023-03-01T05:32:07;54.67;;;24.02;;
51957;SDS011;41120;51.820;20.804;2023-03-01T05:34:41;60.75;;;25.08;;
51957;SDS011;41120;51.820;20.804;2023-03-01T05:39:46;56.97;;;24.95;;
51957;SDS011;41120;51.820;20.804;2023-03-01T05:42:16;56.70;;;25.70;;
51957;SDS011;41120;51.820;20.804;2023-03-01T05:48:11;57.13;;;24.55;;
51957;SDS011;41120;51.820;20.804;2023-03-01T05:50:45;55.22;;;25.80;;
51957;SDS011;41120;51.820;20.804;2023-03-01T05:56:13;61.17;;;26.23;;
51957;SDS011;41120;51.820;20.804;2023-03-01T05:58:47;59.42;;;27.02;;
51957;SDS011;41120;51.820;20.804;2023-03-01T06:01:13;53.67;;;24.45;;
51957;SDS011;41120;51.820;20.804;2023-03-01T06:03:40;53.53;;;23.07;;
51957;SDS011;41120;51.820;20.804;2023-03-01T06:06:18;57.80;;;23.88;;
51957;SDS011;41120;51.820;20.804;2023-03-01T06:08:51;50.85;;;23.58;;
51957;SDS011;41120;51.820;20.804;2023-03-01T06:11:26;55.78;;;24.48;;
51957;SDS011;41120;51.820;20.804;2023-03-01T06:13:53;56.53;;;24.08;;
51957;SDS011;41120;51.820;20.804;2023-03-01T06:16:29;58.17;;;23.77;;
51957;SDS011;41120;51.820;20.804;2023-03-01T06:19:02;60.28;;;26.25;;
51957;SDS011;41120;51.820;20.804;2023-03-01T06:24:19;61.03;;;25.92;;
51957;SDS011;41120;51.820;20.804;2023-03-01T06:29:27;54.95;;;23.75;;
51957;SDS011;41120;51.820;20.804;2023-03-01T06:31:53;49.13;;;23.25;;
51957;SDS011;41120;51.820;20.804;2023-03-01T06:34:29;58.83;;;25.00;;
51957;SDS011;41120;51.820;20.804;2023-03-01T06:36:56;63.47;;;27.38;;
51957;SDS011;41120;51.820;20.804;2023-03-01T06:42:28;54.28;;;24.48;;
51957;SDS011;41120;51.820;20.804;2023-03-01T06:47:29;55.05;;;26.17;;
51957;SDS011;41120;51.820;20.804;2023-03-01T06:49:56;61.50;;;26.90;;
51957;SDS011;41120;51.820;20.804;2023-03-01T06:52:28;60.42;;;28.45;;
51957;SDS011;41120;51.820;20.804;2023-03-01T06:54:54;57.95;;;26.50;;
51957;SDS011;41120;51.820;20.804;2023-03-01T06:59:49;62.10;;;28.58;;
51957;SDS011;41120;51.820;20.804;2023-03-01T07:02:17;56.47;;;28.40;;
51957;SDS011;41120;51.820;20.804;2023-03-01T07:04:43;51.77;;;25.37;;
51957;SDS011;41120;51.820;20.804;2023-03-01T07:15:12;51.95;;;25.95;;
51957;SDS011;41120;51.820;20.804;2023-03-01T07:17:40;47.17;;;22.95;;
51957;SDS011;41120;51.820;20.804;2023-03-01T07:20:22;52.47;;;24.87;;
51957;SDS011;41120;51.820;20.804;2023-03-01T07:22:50;54.67;;;26.02;;
51957;SDS011;41120;51.820;20.804;2023-03-01T07:25:19;46.33;;;22.83;;
51957;SDS011;41120;51.820;20.804;2023-03-01T07:28:01;42.90;;;21.13;;
51957;SDS011;41120;51.820;20.804;2023-03-01T07:32:58;44.50;;;21.30;;
51957;SDS011;41120;51.820;20.804;2023-03-01T07:35:25;37.92;;;20.02;;
51957;SDS011;41120;51.820;20.804;2023-03-01T07:37:52;42.25;;;22.77;;
51957;SDS011;41120;51.820;20.804;2023-03-01T07:40:19;45.15;;;22.85;;
51957;SDS011;41120;51.820;20.804;2023-03-01T07:42:46;48.70;;;24.02;;
51957;SDS011;41120;51.820;20.804;2023-03-01T07:45:12;44.97;;;22.33;;
51957;SDS011;41120;51.820;20.804;2023-03-01T07:47:39;38.00;;;20.25;;
51957;SDS011;41120;51.820;20.804;2023-03-01T07:50:05;48.28;;;24.60;;
51957;SDS011;41120;51.820;20.804;2023-03-01T07:52:32;40.80;;;21.45;;
51957;SDS011;41120;51.820;20.804;2023-03-01T07:55:00;36.27;;;20.67;;
51957;SDS011;41120;51.820;20.804;2023-03-01T07:57:29;39.22;;;20.90;;
51957;SDS011;41120;51.820;20.804;2023-03-01T07:59:55;54.17;;;26.63;;
51957;SDS011;41120;51.820;20.804;2023-03-01T08:08:17;45.30;;;23.05;;
51957;SDS011;41120;51.820;20.804;2023-03-01T08:10:46;44.15;;;21.77;;
51957;SDS011;41120;51.820;20.804;2023-03-01T08:15:49;41.53;;;20.13;;
51957;SDS011;41120;51.820;20.804;2023-03-01T08:23:42;52.08;;;25.52;;
51957;SDS011;41120;51.820;20.804;2023-03-01T08:31:18;40.55;;;17.38;;
51957;SDS011;41120;51.820;20.804;2023-03-01T08:36:20;35.28;;;18.52;;
51957;SDS011;41120;51.820;20.804;2023-03-01T08:38:47;29.77;;;16.20;;
51957;SDS011;41120;51.820;20.804;2023-03-01T08:43:46;29.70;;;14.75;;
51957;SDS011;41120;51.820;20.804;2023-03-01T08:46:20;27.67;;;15.23;;
51957;SDS011;41120;51.820;20.804;2023-03-01T08:48:46;30.85;;;14.88;;
51957;SDS011;41120;51.820;20.804;2023-03-01T08:51:17;26.35;;;13.65;;
51957;SDS011;41120;51.820;20.804;2023-03-01T08:53:44;27.25;;;12.40;;
51957;SDS011;41120;51.820;20.804;2023-03-01T08:58:43;24.63;;;13.13;;
51957;SDS011;41120;51.820;20.804;2023-03-01T09:04:10;29.13;;;14.15;;
51957;SDS011;41120;51.820;20.804;2023-03-01T09:06:40;24.77;;;13.68;;
51957;SDS011;41120;51.820;20.804;2023-03-01T09:09:12;39.70;;;30.88;;
51957;SDS011;41120;51.820;20.804;2023-03-01T09:11:44;23.05;;;13.70;;
51957;SDS011;41120;51.820;20.804;2023-03-01T09:14:18;26.50;;;13.32;;
51957;SDS011;41120;51.820;20.804;2023-03-01T09:16:44;22.85;;;13.00;;
51957;SDS011;41120;51.820;20.804;2023-03-01T09:19:16;20.73;;;9.90;;
51957;SDS011;41120;51.820;20.804;2023-03-01T09:21:44;28.15;;;14.60;;
51957;SDS011;41120;51.820;20.804;2023-03-01T09:24:22;16.75;;;9.55;;
51957;SDS011;41120;51.820;20.804;2023-03-01T09:26:54;19.80;;;9.32;;
51957;SDS011;41120;51.820;20.804;2023-03-01T09:31:47;14.70;;;7.83;;
51957;SDS011;41120;51.820;20.804;2023-03-01T09:36:49;15.82;;;8.18;;
51957;SDS011;41120;51.820;20.804;2023-03-01T09:39:17;17.65;;;9.77;;
51957;SDS011;41120;51.820;20.804;2023-03-01T09:47:27;20.33;;;9.82;;
51957;SDS011;41120;51.820;20.804;2023-03-01T09:52:44;21.35;;;9.85;;
51957;SDS011;41120;51.820;20.804;2023-03-01T09:55:13;17.48;;;8.95;;
51957;SDS011;41120;51.820;20.804;2023-03-01T09:57:48;21.63;;;10.60;;
51957;SDS011;41120;51.820;20.804;2023-03-01T10:11:22;18.40;;;9.50;;
51957;SDS011;41120;51.820;20.804;2023-03-01T10:27:25;15.98;;;7.47;;
51957;SDS011;41120;51.820;20.804;2023-03-01T10:30:00;13.52;;;6.88;;
51957;SDS011;41120;51.820;20.804;2023-03-01T10:32:29;15.85;;;8.48;;
51957;SDS011;41120;51.820;20.804;2023-03-01T10:34:58;15.77;;;8.52;;
51957;SDS011;41120;51.820;20.804;2023-03-01T10:37:26;18.70;;;7.88;;
51957;SDS011;41120;51.820;20.804;2023-03-01T10:40:06;14.38;;;6.90;;
51957;SDS011;41120;51.820;20.804;2023-03-01T10:42:39;15.02;;;7.40;;
51957;SDS011;41120;51.820;20.804;2023-03-01T10:50:36;16.83;;;7.70;;
51957;SDS011;41120;51.820;20.804;2023-03-01T10:53:20;18.90;;;8.18;;
51957;SDS011;41120;51.820;20.804;2023-03-01T10:55:47;14.55;;;7.22;;
51957;SDS011;41120;51.820;20.804;2023-03-01T10:58:23;18.10;;;8.70;;
51957;SDS011;41120;51.820;20.804;2023-03-01T11:00:50;17.27;;;7.78;;
51957;SDS011;41120;51.820;20.804;2023-03-01T11:03:20;16.23;;;9.00;;
51957;SDS011;41120;51.820;20.804;2023-03-01T11:08:44;16.45;;;8.70;;
51957;SDS011;41120;51.820;20.804;2023-03-01T11:19:21;14.18;;;7.47;;
51957;SDS011;41120;51.820;20.804;2023-03-01T11:24:49;12.98;;;7.88;;
51957;SDS011;41120;51.820;20.804;2023-03-01T11:29:49;13.80;;;6.65;;
51957;SDS011;41120;51.820;20.804;2023-03-01T11:32:24;17.98;;;9.23;;
51957;SDS011;41120;51.820;20.804;2023-03-01T11:49:08;17.35;;;8.55;;
51957;SDS011;41120;51.820;20.804;2023-03-01T11:57:00;19.67;;;8.80;;
51957;SDS011;41120;51.820;20.804;2023-03-01T12:21:42;14.75;;;7.53;;
51957;SDS011;41120;51.820;20.804;2023-03-01T13:18:27;8.85;;;4.65;;
51957;SDS011;41120;51.820;20.804;2023-03-01T13:30:01;10.55;;;4.90;;
51957;SDS011;41120;51.820;20.804;2023-03-01T13:35:59;8.00;;;4.43;;
51957;SDS011;41120;51.820;20.804;2023-03-01T13:38:45;8.20;;;4.60;;
51957;SDS011;41120;51.820;20.804;2023-03-01T13:47:14;8.30;;;4.15;;
51957;SDS011;41120;51.820;20.804;2023-03-01T13:53:14;12.45;;;6.47;;
51957;SDS011;41120;51.820;20.804;2023-03-01T14:01:28;5.75;;;3.60;;
51957;SDS011;41120;51.820;20.804;2023-03-01T14:04:18;5.75;;;3.55;;
51957;SDS011;41120;51.820;20.804;2023-03-01T14:07:21;12.98;;;5.43;;
51957;SDS011;41120;51.820;20.804;2023-03-01T14:09:40;8.90;;;5.43;;
51957;SDS011;41120;51.820;20.804;2023-03-01T14:20:28;8.23;;;4.50;;
51957;SDS011;41120;51.820;20.804;2023-03-01T14:23:01;7.35;;;4.07;;
51957;SDS011;41120;51.820;20.804;2023-03-01T14:28:27;6.55;;;3.38;;
51957;SDS011;41120;51.820;20.804;2023-03-01T14:36:09;7.07;;;3.65;;
51957;SDS011;41120;51.820;20.804;2023-03-01T14:41:03;10.13;;;6.50;;
51957;SDS011;41120;51.820;20.804;2023-03-01T14:52:04;10.02;;;5.32;;
51957;SDS011;41120;51.820;20.804;2023-03-01T14:54:42;8.43;;;4.25;;
51957;SDS011;41120;51.820;20.804;2023-03-01T15:00:05;10.18;;;4.57;;
51957;SDS011;41120;51.820;20.804;2023-03-01T15:02:38;11.32;;;5.07;;
51957;SDS011;41120;51.820;20.804;2023-03-01T15:05:14;8.63;;;4.82;;
51957;SDS011;41120;51.820;20.804;2023-03-01T15:07:50;9.90;;;4.30;;
51957;SDS011;41120;51.820;20.804;2023-03-01T15:10:27;11.55;;;4.78;;
51957;SDS011;41120;51.820;20.804;2023-03-01T15:12:55;9.45;;;5.15;;
51957;SDS011;41120;51.820;20.804;2023-03-01T15:15:36;10.15;;;5.60;;
51957;SDS011;41120;51.820;20.804;2023-03-01T15:18:26;11.75;;;5.43;;
51957;SDS011;41120;51.820;20.804;2023-03-01T15:21:05;11.35;;;5.93;;
51957;SDS011;41120;51.820;20.804;2023-03-01T15:26:31;8.65;;;5.00;;
51957;SDS011;41120;51.820;20.804;2023-03-01T15:29:05;15.15;;;6.35;;
51957;SDS011;41120;51.820;20.804;2023-03-01T15:31:53;17.38;;;6.15;;
51957;SDS011;41120;51.820;20.804;2023-03-01T15:34:29;13.32;;;6.00;;
51957;SDS011;41120;51.820;20.804;2023-03-01T15:37:06;13.23;;;5.97;;
51957;SDS011;41120;51.820;20.804;2023-03-01T15:53:55;21.30;;;8.77;;
51957;SDS011;41120;51.820;20.804;2023-03-01T15:56:29;19.00;;;8.90;;
51957;SDS011;41120;51.820;20.804;2023-03-01T15:59:08;14.52;;;6.90;;
51957;SDS011;41120;51.820;20.804;2023-03-01T16:01:45;11.57;;;6.75;;
51957;SDS011;41120;51.820;20.804;2023-03-01T16:07:08;16.60;;;7.10;;
51957;SDS011;41120;51.820;20.804;2023-03-01T16:09:40;13.80;;;7.22;;
51957;SDS011;41120;51.820;20.804;2023-03-01T16:12:17;20.83;;;12.88;;
51957;SDS011;41120;51.820;20.804;2023-03-01T16:18:07;34.85;;;19.60;;
51957;SDS011;41120;51.820;20.804;2023-03-01T16:23:10;35.65;;;21.13;;
51957;SDS011;41120;51.820;20.804;2023-03-01T16:31:11;36.00;;;18.55;;
51957;SDS011;41120;51.820;20.804;2023-03-01T16:36:30;38.92;;;17.92;;
51957;SDS011;41120;51.820;20.804;2023-03-01T16:38:57;44.35;;;20.88;;
51957;SDS011;41120;51.820;20.804;2023-03-01T16:41:29;52.08;;;22.73;;
51957;SDS011;41120;51.820;20.804;2023-03-01T16:49:00;43.80;;;20.50;;
51957;SDS011;41120;51.820;20.804;2023-03-01T16:57:38;45.65;;;21.30;;
51957;SDS011;41120;51.820;20.804;2023-03-01T17:00:11;35.97;;;19.52;;
51957;SDS011;41120;51.820;20.804;2023-03-01T17:08:30;40.35;;;19.88;;
51957;SDS011;41120;51.820;20.804;2023-03-01T17:11:05;36.10;;;19.15;;
51957;SDS011;41120;51.820;20.804;2023-03-01T17:16:31;39.15;;;20.23;;
51957;SDS011;41120;51.820;20.804;2023-03-01T17:19:00;45.50;;;21.88;;
51957;SDS011;41120;51.820;20.804;2023-03-01T17:21:30;44.35;;;22.58;;
51957;SDS011;41120;51.820;20.804;2023-03-01T17:29:19;49.03;;;25.40;;
51957;SDS011;41120;51.820;20.804;2023-03-01T17:31:59;43.42;;;22.25;;
51957;SDS011;41120;51.820;20.804;2023-03-01T17:37:59;42.17;;;22.10;;
51957;SDS011;41120;51.820;20.804;2023-03-01T17:40:32;49.13;;;25.50;;
51957;SDS011;41120;51.820;20.804;2023-03-01T17:43:00;46.70;;;23.42;;
51957;SDS011;41120;51.820;20.804;2023-03-01T17:45:32;45.08;;;22.60;;
51957;SDS011;41120;51.820;20.804;2023-03-01T17:48:13;44.17;;;22.70;;
51957;SDS011;41120;51.820;20.804;2023-03-01T17:53:17;49.20;;;24.92;;
51957;SDS011;41120;51.820;20.804;2023-03-01T17:55:57;51.38;;;24.27;;
51957;SDS011;41120;51.820;20.804;2023-03-01T17:58:32;47.33;;;22.50;;
51957;SDS011;41120;51.820;20.804;2023-03-01T18:01:14;47.65;;;23.15;;
51957;SDS011;41120;51.820;20.804;2023-03-01T18:03:42;42.10;;;21.90;;
51957;SDS011;41120;51.820;20.804;2023-03-01T18:06:15;49.42;;;22.60;;
51957;SDS011;41120;51.820;20.804;2023-03-01T18:11:18;79.30;;;38.78;;
51957;SDS011;41120;51.820;20.804;2023-03-01T18:16:45;59.72;;;30.08;;
51957;SDS011;41120;51.820;20.804;2023-03-01T18:19:32;54.10;;;28.17;;
51957;SDS011;41120;51.820;20.804;2023-03-01T18:22:14;56.33;;;26.92;;
51957;SDS011;41120;51.820;20.804;2023-03-01T18:24:51;51.10;;;25.33;;
51957;SDS011;41120;51.820;20.804;2023-03-01T18:30:07;48.15;;;24.10;;
51957;SDS011;41120;51.820;20.804;2023-03-01T18:38:07;66.40;;;30.90;;
51957;SDS011;41120;51.820;20.804;2023-03-01T18:40:33;93.18;;;42.53;;
51957;SDS011;41120;51.820;20.804;2023-03-01T18:43:02;53.55;;;26.42;;
51957;SDS011;41120;51.820;20.804;2023-03-01T18:45:28;52.47;;;26.33;;
51957;SDS011;41120;51.820;20.804;2023-03-01T18:56:42;69.43;;;37.55;;
51957;SDS011;41120;51.820;20.804;2023-03-01T18:59:11;67.63;;;34.22;;
51957;SDS011;41120;51.820;20.804;2023-03-01T19:05:00;57.30;;;26.33;;
51957;SDS011;41120;51.820;20.804;2023-03-01T19:07:32;63.58;;;30.48;;
51957;SDS011;41120;51.820;20.804;2023-03-01T19:10:00;51.35;;;27.05;;
51957;SDS011;41120;51.820;20.804;2023-03-01T19:17:56;63.92;;;31.17;;
51957;SDS011;41120;51.820;20.804;2023-03-01T19:20:23;54.42;;;27.38;;
51957;SDS011;41120;51.820;20.804;2023-03-01T19:22:53;55.20;;;25.47;;
51957;SDS011;41120;51.820;20.804;2023-03-01T19:25:22;52.05;;;24.52;;
51957;SDS011;41120;51.820;20.804;2023-03-01T19:30:23;53.20;;;26.98;;
51957;SDS011;41120;51.820;20.804;2023-03-01T19:32:49;52.03;;;25.92;;
51957;SDS011;41120;51.820;20.804;2023-03-01T19:35:18;47.88;;;25.35;;
51957;SDS011;41120;51.820;20.804;2023-03-01T19:37:46;51.80;;;24.92;;
51957;SDS011;41120;51.820;20.804;2023-03-01T19:40:24;50.05;;;23.80;;
51957;SDS011;41120;51.820;20.804;2023-03-01T19:43:05;46.03;;;23.63;;
51957;SDS011;41120;51.820;20.804;2023-03-01T19:45:32;49.40;;;26.00;;
51957;SDS011;41120;51.820;20.804;2023-03-01T19:50:38;75.50;;;39.10;;
51957;SDS011;41120;51.820;20.804;2023-03-01T19:53:04;67.25;;;33.58;;
51957;SDS011;41120;51.820;20.804;2023-03-01T19:55:34;70.90;;;36.78;;
51957;SDS011;41120;51.820;20.804;2023-03-01T20:03:08;90.97;;;40.45;;
51957;SDS011;41120;51.820;20.804;2023-03-01T20:05:35;83.22;;;37.42;;
51957;SDS011;41120;51.820;20.804;2023-03-01T20:08:01;73.22;;;36.55;;
51957;SDS011;41120;51.820;20.804;2023-03-01T20:10:30;76.35;;;37.33;;
51957;SDS011;41120;51.820;20.804;2023-03-01T20:12:55;70.90;;;34.03;;
51957;SDS011;41120;51.820;20.804;2023-03-01T20:15:24;68.38;;;34.97;;
51957;SDS011;41120;51.820;20.804;2023-03-01T20:17:51;68.22;;;33.30;;
51957;SDS011;41120;51.820;20.804;2023-03-01T20:20:18;69.68;;;34.70;;
51957;SDS011;41120;51.820;20.804;2023-03-01T20:22:45;58.72;;;31.05;;
51957;SDS011;41120;51.820;20.804;2023-03-01T20:25:13;60.80;;;29.35;;
51957;SDS011;41120;51.820;20.804;2023-03-01T20:27:41;53.97;;;27.20;;
51957;SDS011;41120;51.820;20.804;2023-03-01T20:30:17;61.42;;;30.92;;
51957;SDS011;41120;51.820;20.804;2023-03-01T20:32:52;57.05;;;31.20;;
51957;SDS011;41120;51.820;20.804;2023-03-01T20:37:51;59.95;;;28.23;;
51957;SDS011;41120;51.820;20.804;2023-03-01T20:40:19;55.65;;;29.55;;
51957;SDS011;41120;51.820;20.804;2023-03-01T20:45:24;55.90;;;29.08;;
51957;SDS011;41120;51.820;20.804;2023-03-01T20:47:51;52.63;;;27.63;;
51957;SDS011;41120;51.820;20.804;2023-03-01T20:50:24;49.13;;;25.58;;
51957;SDS011;41120;51.820;20.804;2023-03-01T20:55:52;37.97;;;20.38;;
51957;SDS011;41120;51.820;20.804;2023-03-01T20:58:19;42.20;;;22.40;;
51957;SDS011;41120;51.820;20.804;2023-03-01T21:00:50;34.63;;;19.23;;
51957;SDS011;41120;51.820;20.804;2023-03-01T21:03:35;37.67;;;19.58;;
51957;SDS011;41120;51.820;20.804;2023-03-01T21:06:02;35.53;;;18.80;;
51957;SDS011;41120;51.820;20.804;2023-03-01T21:08:29;35.72;;;18.90;;
51957;SDS011;41120;51.820;20.804;2023-03-01T21:10:55;34.88;;;18.00;;
51957;SDS011;41120;51.820;20.804;2023-03-01T21:13:22;29.30;;;15.82;;
51957;SDS011;41120;51.820;20.804;2023-03-01T21:16:00;31.30;;;16.35;;
51957;SDS011;41120;51.820;20.804;2023-03-01T21:18:35;35.25;;;17.58;;
51957;SDS011;41120;51.820;20.804;2023-03-01T21:23:54;38.08;;;19.58;;
51957;SDS011;41120;51.820;20.804;2023-03-01T21:26:28;45.53;;;23.85;;
51957;SDS011;41120;51.820;20.804;2023-03-01T21:28:58;55.42;;;26.55;;
51957;SDS011;41120;51.820;20.804;2023-03-01T21:31:31;47.40;;;25.45;;
51957;SDS011;41120;51.820;20.804;2023-03-01T21:39:13;75.43;;;34.13;;
51957;SDS011;41120;51.820;20.804;2023-03-01T21:41:40;88.40;;;36.63;;
51957;SDS011;41120;51.820;20.804;2023-03-01T21:44:22;96.88;;;37.67;;
51957;SDS011;41120;51.820;20.804;2023-03-01T21:46:55;94.90;;;38.28;;
51957;SDS011;41120;51.820;20.804;2023-03-01T21:55:37;91.80;;;39.30;;
51957;SDS011;41120;51.820;20.804;2023-03-01T22:09:32;81.82;;;35.55;;
51957;SDS011;41120;51.820;20.804;2023-03-01T22:12:01;75.22;;;30.88;;
51957;SDS011;41120;51.820;20.804;2023-03-01T22:14:35;73.75;;;33.53;;
51957;SDS011;41120;51.820;20.804;2023-03-01T22:17:17;75.32;;;34.38;;
51957;SDS011;41120;51.820;20.804;2023-03-01T22:19:50;85.85;;;35.42;;
51957;SDS011;41120;51.820;20.804;2023-03-01T22:22:17;79.50;;;35.05;;